sensor_id;sensor_type;location;lat;lon;timestamp;P1;durP1;ratioP1;P2;durP2;ratioP2
8341;SDS011;4208;49.406;10.788;2022-08-19T00:01:56;26.73;;;23.80;;
8341;SDS011;4208;49.406;10.788;2022-08-19T00:04:27;25.17;;;22.10;;
8341;SDS011;4208;49.406;10.788;2022-08-19T00:06:58;27.95;;;23.60;;
8341;SDS011;4208;49.406;10.788;2022-08-19T00:09:27;27.73;;;23.60;;
8341;SDS011;4208;49.406;10.788;2022-08-19T00:11:57;26.98;;;23.15;;
8341;SDS011;4208;49.406;10.788;2022-08-19T00:14:26;25.73;;;22.95;;
8341;SDS011;4208;49.406;10.788;2022-08-19T00:16:59;28.25;;;23.50;;
8341;SDS011;4208;49.406;10.788;2022-08-19T00:19:29;27.33;;;22.85;;
8341;SDS011;4208;49.406;10.788;2022-08-19T00:21:59;26.20;;;23.38;;
8341;SDS011;4208;49.406;10.788;2022-08-19T00:24:29;25.17;;;22.05;;
8341;SDS011;4208;49.406;10.788;2022-08-19T00:26:58;25.83;;;22.95;;
8341;SDS011;4208;49.406;10.788;2022-08-19T00:29:48;30.02;;;23.40;;
8341;SDS011;4208;49.406;10.788;2022-08-19T00:32:18;28.40;;;24.05;;
8341;SDS011;4208;49.406;10.788;2022-08-19T00:34:49;25.75;;;22.17;;
8341;SDS011;4208;49.406;10.788;2022-08-19T00:37:22;26.98;;;23.35;;
8341;SDS011;4208;49.406;10.788;2022-08-19T00:39:53;29.20;;;24.30;;
8341;SDS011;4208;49.406;10.788;2022-08-19T00:42:23;28.08;;;23.80;;
8341;SDS011;4208;49.406;10.788;2022-08-19T00:44:55;28.90;;;24.15;;
8341;SDS011;4208;49.406;10.788;2022-08-19T00:47:24;27.70;;;24.60;;
8341;SDS011;4208;49.406;10.788;2022-08-19T00:49:54;27.30;;;23.65;;
8341;SDS011;4208;49.406;10.788;2022-08-19T00:52:28;27.42;;;23.35;;
8341;SDS011;4208;49.406;10.788;2022-08-19T00:55:00;30.02;;;24.95;;
8341;SDS011;4208;49.406;10.788;2022-08-19T00:57:32;28.60;;;24.27;;
8341;SDS011;4208;49.406;10.788;2022-08-19T01:00:05;29.98;;;24.15;;
8341;SDS011;4208;49.406;10.788;2022-08-19T01:02:38;28.77;;;24.10;;
8341;SDS011;4208;49.406;10.788;2022-08-19T01:05:09;34.88;;;27.52;;
8341;SDS011;4208;49.406;10.788;2022-08-19T01:07:43;31.20;;;25.58;;
8341;SDS011;4208;49.406;10.788;2022-08-19T01:10:13;33.30;;;27.65;;
8341;SDS011;4208;49.406;10.788;2022-08-19T01:12:46;33.63;;;26.40;;
8341;SDS011;4208;49.406;10.788;2022-08-19T01:15:16;29.92;;;25.48;;
8341;SDS011;4208;49.406;10.788;2022-08-19T01:17:47;30.48;;;25.17;;
8341;SDS011;4208;49.406;10.788;2022-08-19T01:20:19;30.30;;;24.73;;
8341;SDS011;4208;49.406;10.788;2022-08-19T01:22:52;31.27;;;24.75;;
8341;SDS011;4208;49.406;10.788;2022-08-19T01:25:24;29.90;;;24.92;;
8341;SDS011;4208;49.406;10.788;2022-08-19T01:27:55;28.95;;;24.92;;
8341;SDS011;4208;49.406;10.788;2022-08-19T01:30:36;28.73;;;23.80;;
8341;SDS011;4208;49.406;10.788;2022-08-19T01:33:10;28.88;;;23.58;;
8341;SDS011;4208;49.406;10.788;2022-08-19T01:35:39;30.92;;;24.17;;
8341;SDS011;4208;49.406;10.788;2022-08-19T01:38:17;29.10;;;23.60;;
8341;SDS011;4208;49.406;10.788;2022-08-19T01:40:48;28.77;;;24.63;;
8341;SDS011;4208;49.406;10.788;2022-08-19T01:43:17;27.85;;;23.33;;
8341;SDS011;4208;49.406;10.788;2022-08-19T01:45:46;29.88;;;25.08;;
8341;SDS011;4208;49.406;10.788;2022-08-19T01:48:14;27.27;;;24.02;;
8341;SDS011;4208;49.406;10.788;2022-08-19T01:50:43;26.40;;;22.80;;
8341;SDS011;4208;49.406;10.788;2022-08-19T01:53:13;26.90;;;22.83;;
8341;SDS011;4208;49.406;10.788;2022-08-19T01:55:42;26.58;;;23.70;;
8341;SDS011;4208;49.406;10.788;2022-08-19T01:58:12;26.10;;;22.80;;
8341;SDS011;4208;49.406;10.788;2022-08-19T02:00:45;25.60;;;22.50;;
8341;SDS011;4208;49.406;10.788;2022-08-19T02:03:14;26.48;;;22.52;;
8341;SDS011;4208;49.406;10.788;2022-08-19T02:05:43;25.73;;;22.63;;
8341;SDS011;4208;49.406;10.788;2022-08-19T02:08:14;26.88;;;23.90;;
8341;SDS011;4208;49.406;10.788;2022-08-19T02:10:43;28.50;;;22.88;;
8341;SDS011;4208;49.406;10.788;2022-08-19T02:13:12;26.52;;;22.73;;
8341;SDS011;4208;49.406;10.788;2022-08-19T02:15:41;28.30;;;22.88;;
8341;SDS011;4208;49.406;10.788;2022-08-19T02:18:10;31.23;;;23.17;;
8341;SDS011;4208;49.406;10.788;2022-08-19T02:20:39;28.48;;;24.17;;
8341;SDS011;4208;49.406;10.788;2022-08-19T02:23:10;32.33;;;24.60;;
8341;SDS011;4208;49.406;10.788;2022-08-19T02:25:44;29.55;;;23.48;;
8341;SDS011;4208;49.406;10.788;2022-08-19T02:28:14;27.88;;;23.10;;
8341;SDS011;4208;49.406;10.788;2022-08-19T02:30:45;28.35;;;23.50;;
8341;SDS011;4208;49.406;10.788;2022-08-19T02:33:14;32.13;;;25.15;;
8341;SDS011;4208;49.406;10.788;2022-08-19T02:35:44;29.55;;;23.45;;
8341;SDS011;4208;49.406;10.788;2022-08-19T02:38:14;32.10;;;24.80;;
8341;SDS011;4208;49.406;10.788;2022-08-19T02:40:55;32.72;;;24.83;;
8341;SDS011;4208;49.406;10.788;2022-08-19T02:43:26;29.77;;;24.38;;
8341;SDS011;4208;49.406;10.788;2022-08-19T02:46:00;32.00;;;24.73;;
8341;SDS011;4208;49.406;10.788;2022-08-19T02:48:30;33.10;;;24.42;;
8341;SDS011;4208;49.406;10.788;2022-08-19T02:51:00;31.30;;;24.23;;
8341;SDS011;4208;49.406;10.788;2022-08-19T02:53:28;29.05;;;23.63;;
8341;SDS011;4208;49.406;10.788;2022-08-19T02:55:58;29.05;;;23.98;;
8341;SDS011;4208;49.406;10.788;2022-08-19T02:58:27;29.15;;;23.45;;
8341;SDS011;4208;49.406;10.788;2022-08-19T03:00:56;30.10;;;24.33;;
8341;SDS011;4208;49.406;10.788;2022-08-19T03:03:25;30.88;;;23.92;;
8341;SDS011;4208;49.406;10.788;2022-08-19T03:08:43;30.73;;;24.13;;
8341;SDS011;4208;49.406;10.788;2022-08-19T03:11:15;31.13;;;23.80;;
8341;SDS011;4208;49.406;10.788;2022-08-19T03:13:45;33.10;;;25.52;;
8341;SDS011;4208;49.406;10.788;2022-08-19T03:16:15;33.08;;;26.45;;
8341;SDS011;4208;49.406;10.788;2022-08-19T03:18:45;33.90;;;25.95;;
8341;SDS011;4208;49.406;10.788;2022-08-19T03:21:14;32.17;;;24.85;;
8341;SDS011;4208;49.406;10.788;2022-08-19T03:23:44;29.65;;;23.83;;
8341;SDS011;4208;49.406;10.788;2022-08-19T03:26:14;31.77;;;25.80;;
8341;SDS011;4208;49.406;10.788;2022-08-19T03:28:44;32.30;;;24.92;;
8341;SDS011;4208;49.406;10.788;2022-08-19T03:31:24;30.20;;;24.67;;
8341;SDS011;4208;49.406;10.788;2022-08-19T03:34:14;30.30;;;23.70;;
8341;SDS011;4208;49.406;10.788;2022-08-19T03:36:46;32.92;;;25.35;;
8341;SDS011;4208;49.406;10.788;2022-08-19T03:39:15;31.23;;;24.70;;
8341;SDS011;4208;49.406;10.788;2022-08-19T03:41:46;31.52;;;25.25;;
8341;SDS011;4208;49.406;10.788;2022-08-19T03:44:36;33.60;;;24.98;;
8341;SDS011;4208;49.406;10.788;2022-08-19T03:47:05;32.45;;;25.25;;
8341;SDS011;4208;49.406;10.788;2022-08-19T03:49:34;32.10;;;24.85;;
8341;SDS011;4208;49.406;10.788;2022-08-19T03:52:04;33.13;;;24.88;;
8341;SDS011;4208;49.406;10.788;2022-08-19T03:54:34;32.65;;;24.63;;
8341;SDS011;4208;49.406;10.788;2022-08-19T03:57:06;35.55;;;25.77;;
8341;SDS011;4208;49.406;10.788;2022-08-19T03:59:37;31.13;;;25.23;;
8341;SDS011;4208;49.406;10.788;2022-08-19T04:02:08;33.00;;;25.50;;
8341;SDS011;4208;49.406;10.788;2022-08-19T04:04:39;36.58;;;26.10;;
8341;SDS011;4208;49.406;10.788;2022-08-19T04:07:11;33.13;;;25.63;;
8341;SDS011;4208;49.406;10.788;2022-08-19T04:09:43;31.05;;;24.42;;
8341;SDS011;4208;49.406;10.788;2022-08-19T04:12:13;32.28;;;23.70;;
8341;SDS011;4208;49.406;10.788;2022-08-19T04:14:42;33.22;;;25.20;;
8341;SDS011;4208;49.406;10.788;2022-08-19T04:17:11;32.85;;;25.70;;
8341;SDS011;4208;49.406;10.788;2022-08-19T04:19:41;34.13;;;25.70;;
8341;SDS011;4208;49.406;10.788;2022-08-19T04:22:10;38.00;;;26.65;;
8341;SDS011;4208;49.406;10.788;2022-08-19T04:24:39;32.88;;;25.55;;
8341;SDS011;4208;49.406;10.788;2022-08-19T04:27:08;33.40;;;25.38;;
8341;SDS011;4208;49.406;10.788;2022-08-19T04:29:38;33.22;;;25.20;;
8341;SDS011;4208;49.406;10.788;2022-08-19T04:32:10;31.15;;;24.63;;
8341;SDS011;4208;49.406;10.788;2022-08-19T04:34:42;35.30;;;25.30;;
8341;SDS011;4208;49.406;10.788;2022-08-19T04:37:30;35.80;;;25.70;;
8341;SDS011;4208;49.406;10.788;2022-08-19T04:40:03;35.40;;;25.75;;
8341;SDS011;4208;49.406;10.788;2022-08-19T04:42:50;34.53;;;25.15;;
8341;SDS011;4208;49.406;10.788;2022-08-19T04:45:22;34.85;;;25.25;;
8341;SDS011;4208;49.406;10.788;2022-08-19T04:47:54;33.50;;;25.45;;
8341;SDS011;4208;49.406;10.788;2022-08-19T04:50:44;33.88;;;25.50;;
8341;SDS011;4208;49.406;10.788;2022-08-19T04:53:12;36.28;;;25.90;;
8341;SDS011;4208;49.406;10.788;2022-08-19T04:55:42;32.03;;;24.77;;
8341;SDS011;4208;49.406;10.788;2022-08-19T04:58:10;35.75;;;25.25;;
8341;SDS011;4208;49.406;10.788;2022-08-19T05:00:41;29.83;;;23.83;;
8341;SDS011;4208;49.406;10.788;2022-08-19T05:03:10;34.75;;;25.40;;
8341;SDS011;4208;49.406;10.788;2022-08-19T05:05:40;32.78;;;24.85;;
8341;SDS011;4208;49.406;10.788;2022-08-19T05:08:12;35.35;;;26.52;;
8341;SDS011;4208;49.406;10.788;2022-08-19T05:10:56;33.85;;;26.40;;
8341;SDS011;4208;49.406;10.788;2022-08-19T05:13:25;36.22;;;25.88;;
8341;SDS011;4208;49.406;10.788;2022-08-19T05:15:56;36.80;;;26.02;;
8341;SDS011;4208;49.406;10.788;2022-08-19T05:18:26;35.40;;;25.90;;
8341;SDS011;4208;49.406;10.788;2022-08-19T05:21:14;43.05;;;29.90;;
8341;SDS011;4208;49.406;10.788;2022-08-19T05:24:02;35.78;;;25.48;;
8341;SDS011;4208;49.406;10.788;2022-08-19T05:26:34;31.55;;;25.05;;
8341;SDS011;4208;49.406;10.788;2022-08-19T05:29:03;34.47;;;24.38;;
8341;SDS011;4208;49.406;10.788;2022-08-19T05:31:34;38.22;;;26.70;;
8341;SDS011;4208;49.406;10.788;2022-08-19T05:34:07;35.22;;;25.80;;
8341;SDS011;4208;49.406;10.788;2022-08-19T05:36:46;35.40;;;26.60;;
8341;SDS011;4208;49.406;10.788;2022-08-19T05:39:17;34.65;;;26.13;;
8341;SDS011;4208;49.406;10.788;2022-08-19T05:41:48;34.47;;;24.23;;
8341;SDS011;4208;49.406;10.788;2022-08-19T05:44:18;34.85;;;26.20;;
8341;SDS011;4208;49.406;10.788;2022-08-19T05:46:49;37.35;;;26.80;;
8341;SDS011;4208;49.406;10.788;2022-08-19T05:49:20;34.83;;;25.40;;
8341;SDS011;4208;49.406;10.788;2022-08-19T05:51:50;34.53;;;24.92;;
8341;SDS011;4208;49.406;10.788;2022-08-19T05:54:19;35.55;;;24.90;;
8341;SDS011;4208;49.406;10.788;2022-08-19T05:56:50;33.22;;;25.02;;
8341;SDS011;4208;49.406;10.788;2022-08-19T05:59:20;33.92;;;25.20;;
8341;SDS011;4208;49.406;10.788;2022-08-19T06:01:52;39.30;;;26.00;;
8341;SDS011;4208;49.406;10.788;2022-08-19T06:04:23;32.22;;;24.27;;
8341;SDS011;4208;49.406;10.788;2022-08-19T06:06:53;32.85;;;24.27;;
8341;SDS011;4208;49.406;10.788;2022-08-19T06:09:23;33.75;;;25.02;;
8341;SDS011;4208;49.406;10.788;2022-08-19T06:11:52;34.75;;;24.73;;
8341;SDS011;4208;49.406;10.788;2022-08-19T06:14:27;33.50;;;24.38;;
8341;SDS011;4208;49.406;10.788;2022-08-19T06:17:00;36.72;;;25.83;;
8341;SDS011;4208;49.406;10.788;2022-08-19T06:19:33;37.75;;;26.30;;
8341;SDS011;4208;49.406;10.788;2022-08-19T06:22:07;31.90;;;25.00;;
8341;SDS011;4208;49.406;10.788;2022-08-19T06:24:37;30.65;;;23.83;;
8341;SDS011;4208;49.406;10.788;2022-08-19T06:27:05;33.47;;;23.95;;
8341;SDS011;4208;49.406;10.788;2022-08-19T06:29:34;32.42;;;24.20;;
8341;SDS011;4208;49.406;10.788;2022-08-19T06:32:05;33.55;;;23.90;;
8341;SDS011;4208;49.406;10.788;2022-08-19T06:34:34;30.67;;;23.83;;
8341;SDS011;4208;49.406;10.788;2022-08-19T06:37:03;32.60;;;24.50;;
8341;SDS011;4208;49.406;10.788;2022-08-19T06:39:33;32.10;;;23.52;;
8341;SDS011;4208;49.406;10.788;2022-08-19T06:42:04;31.05;;;23.45;;
8341;SDS011;4208;49.406;10.788;2022-08-19T06:44:38;32.33;;;24.20;;
8341;SDS011;4208;49.406;10.788;2022-08-19T06:47:13;34.70;;;24.02;;
8341;SDS011;4208;49.406;10.788;2022-08-19T06:49:52;33.60;;;23.98;;
8341;SDS011;4208;49.406;10.788;2022-08-19T06:52:27;33.58;;;25.30;;
8341;SDS011;4208;49.406;10.788;2022-08-19T06:54:56;34.85;;;23.08;;
8341;SDS011;4208;49.406;10.788;2022-08-19T06:57:25;34.08;;;24.67;;
8341;SDS011;4208;49.406;10.788;2022-08-19T06:59:58;31.25;;;23.25;;
8341;SDS011;4208;49.406;10.788;2022-08-19T07:02:28;31.10;;;23.00;;
8341;SDS011;4208;49.406;10.788;2022-08-19T07:04:57;30.50;;;24.10;;
8341;SDS011;4208;49.406;10.788;2022-08-19T07:07:32;29.30;;;23.13;;
8341;SDS011;4208;49.406;10.788;2022-08-19T07:10:02;30.77;;;23.25;;
8341;SDS011;4208;49.406;10.788;2022-08-19T07:12:33;31.13;;;22.35;;
8341;SDS011;4208;49.406;10.788;2022-08-19T07:15:04;32.42;;;23.63;;
8341;SDS011;4208;49.406;10.788;2022-08-19T07:17:36;29.02;;;22.20;;
8341;SDS011;4208;49.406;10.788;2022-08-19T07:20:08;30.23;;;22.88;;
8341;SDS011;4208;49.406;10.788;2022-08-19T07:22:38;30.80;;;23.05;;
8341;SDS011;4208;49.406;10.788;2022-08-19T07:25:07;29.92;;;22.42;;
8341;SDS011;4208;49.406;10.788;2022-08-19T07:27:37;30.60;;;22.38;;
8341;SDS011;4208;49.406;10.788;2022-08-19T07:30:07;29.90;;;22.52;;
8341;SDS011;4208;49.406;10.788;2022-08-19T07:32:40;30.17;;;22.60;;
8341;SDS011;4208;49.406;10.788;2022-08-19T07:35:09;26.63;;;21.13;;
8341;SDS011;4208;49.406;10.788;2022-08-19T07:37:38;28.38;;;21.30;;
8341;SDS011;4208;49.406;10.788;2022-08-19T07:40:11;28.55;;;22.30;;
8341;SDS011;4208;49.406;10.788;2022-08-19T07:42:40;26.92;;;21.23;;
8341;SDS011;4208;49.406;10.788;2022-08-19T07:45:10;26.60;;;21.27;;
8341;SDS011;4208;49.406;10.788;2022-08-19T07:47:40;33.22;;;22.92;;
8341;SDS011;4208;49.406;10.788;2022-08-19T07:50:17;27.45;;;21.42;;
8341;SDS011;4208;49.406;10.788;2022-08-19T07:52:47;30.45;;;22.20;;
8341;SDS011;4208;49.406;10.788;2022-08-19T07:55:18;27.60;;;21.73;;
8341;SDS011;4208;49.406;10.788;2022-08-19T07:58:08;28.65;;;21.42;;
8341;SDS011;4208;49.406;10.788;2022-08-19T08:00:38;29.80;;;22.58;;
8341;SDS011;4208;49.406;10.788;2022-08-19T08:03:08;25.67;;;19.45;;
8341;SDS011;4208;49.406;10.788;2022-08-19T08:05:37;27.15;;;21.45;;
8341;SDS011;4208;49.406;10.788;2022-08-19T08:08:35;31.02;;;21.13;;
8341;SDS011;4208;49.406;10.788;2022-08-19T08:11:24;27.75;;;21.17;;
8341;SDS011;4208;49.406;10.788;2022-08-19T08:13:55;27.15;;;21.30;;
8341;SDS011;4208;49.406;10.788;2022-08-19T08:16:30;25.95;;;20.70;;
8341;SDS011;4208;49.406;10.788;2022-08-19T08:19:07;28.38;;;20.27;;
8341;SDS011;4208;49.406;10.788;2022-08-19T08:21:52;28.00;;;21.60;;
8341;SDS011;4208;49.406;10.788;2022-08-19T08:24:21;28.13;;;21.52;;
8341;SDS011;4208;49.406;10.788;2022-08-19T08:26:54;23.17;;;19.90;;
8341;SDS011;4208;49.406;10.788;2022-08-19T08:29:25;25.30;;;20.40;;
8341;SDS011;4208;49.406;10.788;2022-08-19T08:32:01;25.30;;;20.88;;
8341;SDS011;4208;49.406;10.788;2022-08-19T08:34:42;27.98;;;21.40;;
8341;SDS011;4208;49.406;10.788;2022-08-19T08:37:15;25.00;;;20.23;;
8341;SDS011;4208;49.406;10.788;2022-08-19T08:39:44;29.10;;;20.80;;
8341;SDS011;4208;49.406;10.788;2022-08-19T08:42:15;26.08;;;19.88;;
8341;SDS011;4208;49.406;10.788;2022-08-19T08:44:52;26.50;;;20.25;;
8341;SDS011;4208;49.406;10.788;2022-08-19T08:47:27;25.75;;;19.58;;
8341;SDS011;4208;49.406;10.788;2022-08-19T08:50:03;26.65;;;20.75;;
8341;SDS011;4208;49.406;10.788;2022-08-19T08:52:35;25.00;;;19.90;;
8341;SDS011;4208;49.406;10.788;2022-08-19T08:55:15;24.17;;;20.15;;
8341;SDS011;4208;49.406;10.788;2022-08-19T08:57:50;23.00;;;18.60;;
8341;SDS011;4208;49.406;10.788;2022-08-19T09:00:23;22.08;;;18.25;;
8341;SDS011;4208;49.406;10.788;2022-08-19T09:02:55;26.88;;;19.73;;
8341;SDS011;4208;49.406;10.788;2022-08-19T09:05:30;27.00;;;19.80;;
8341;SDS011;4208;49.406;10.788;2022-08-19T09:08:17;23.45;;;18.75;;
8341;SDS011;4208;49.406;10.788;2022-08-19T09:10:56;24.40;;;19.20;;
8341;SDS011;4208;49.406;10.788;2022-08-19T09:13:27;22.88;;;18.85;;
8341;SDS011;4208;49.406;10.788;2022-08-19T09:16:05;26.10;;;21.52;;
8341;SDS011;4208;49.406;10.788;2022-08-19T09:18:39;24.15;;;20.00;;
8341;SDS011;4208;49.406;10.788;2022-08-19T09:21:12;24.88;;;19.63;;
8341;SDS011;4208;49.406;10.788;2022-08-19T09:23:43;25.75;;;19.10;;
8341;SDS011;4208;49.406;10.788;2022-08-19T09:26:17;22.55;;;18.55;;
8341;SDS011;4208;49.406;10.788;2022-08-19T09:29:09;24.23;;;18.73;;
8341;SDS011;4208;49.406;10.788;2022-08-19T09:31:38;26.17;;;18.98;;
8341;SDS011;4208;49.406;10.788;2022-08-19T09:34:07;23.73;;;18.92;;
8341;SDS011;4208;49.406;10.788;2022-08-19T09:36:49;24.67;;;18.95;;
8341;SDS011;4208;49.406;10.788;2022-08-19T09:39:20;23.45;;;17.92;;
8341;SDS011;4208;49.406;10.788;2022-08-19T09:41:50;24.48;;;18.70;;
8341;SDS011;4208;49.406;10.788;2022-08-19T09:44:19;22.75;;;18.38;;
8341;SDS011;4208;49.406;10.788;2022-08-19T09:46:49;22.35;;;18.77;;
8341;SDS011;4208;49.406;10.788;2022-08-19T09:49:18;21.42;;;18.05;;
8341;SDS011;4208;49.406;10.788;2022-08-19T09:51:52;21.73;;;18.05;;
8341;SDS011;4208;49.406;10.788;2022-08-19T09:54:23;23.35;;;18.23;;
8341;SDS011;4208;49.406;10.788;2022-08-19T09:56:51;20.35;;;17.63;;
8341;SDS011;4208;49.406;10.788;2022-08-19T09:59:21;23.25;;;18.70;;
8341;SDS011;4208;49.406;10.788;2022-08-19T10:01:50;22.80;;;18.33;;
8341;SDS011;4208;49.406;10.788;2022-08-19T10:04:19;22.42;;;18.38;;
8341;SDS011;4208;49.406;10.788;2022-08-19T10:06:55;20.15;;;17.45;;
8341;SDS011;4208;49.406;10.788;2022-08-19T10:09:24;23.65;;;17.88;;
8341;SDS011;4208;49.406;10.788;2022-08-19T10:12:01;20.20;;;16.73;;
8341;SDS011;4208;49.406;10.788;2022-08-19T10:14:32;20.75;;;17.27;;
8341;SDS011;4208;49.406;10.788;2022-08-19T10:17:01;25.00;;;18.20;;
8341;SDS011;4208;49.406;10.788;2022-08-19T10:19:45;19.85;;;16.38;;
8341;SDS011;4208;49.406;10.788;2022-08-19T10:22:23;21.55;;;17.33;;
8341;SDS011;4208;49.406;10.788;2022-08-19T10:24:52;18.98;;;16.80;;
8341;SDS011;4208;49.406;10.788;2022-08-19T10:27:21;18.77;;;15.80;;
8341;SDS011;4208;49.406;10.788;2022-08-19T10:29:52;21.15;;;16.02;;
8341;SDS011;4208;49.406;10.788;2022-08-19T10:32:24;18.30;;;16.10;;
8341;SDS011;4208;49.406;10.788;2022-08-19T10:35:00;17.73;;;15.88;;
8341;SDS011;4208;49.406;10.788;2022-08-19T10:37:33;18.13;;;15.23;;
8341;SDS011;4208;49.406;10.788;2022-08-19T10:40:17;18.85;;;16.58;;
8341;SDS011;4208;49.406;10.788;2022-08-19T10:42:46;18.15;;;15.95;;
8341;SDS011;4208;49.406;10.788;2022-08-19T10:45:15;20.90;;;17.48;;
8341;SDS011;4208;49.406;10.788;2022-08-19T10:47:44;19.52;;;16.30;;
8341;SDS011;4208;49.406;10.788;2022-08-19T10:50:13;19.52;;;16.58;;
8341;SDS011;4208;49.406;10.788;2022-08-19T10:53:04;20.45;;;18.02;;
8341;SDS011;4208;49.406;10.788;2022-08-19T10:55:35;19.70;;;17.20;;
8341;SDS011;4208;49.406;10.788;2022-08-19T10:58:22;19.50;;;16.67;;
8341;SDS011;4208;49.406;10.788;2022-08-19T11:00:53;18.00;;;16.05;;
8341;SDS011;4208;49.406;10.788;2022-08-19T11:03:23;19.30;;;17.27;;
8341;SDS011;4208;49.406;10.788;2022-08-19T11:05:58;20.48;;;16.55;;
8341;SDS011;4208;49.406;10.788;2022-08-19T11:08:29;19.17;;;16.27;;
8341;SDS011;4208;49.406;10.788;2022-08-19T11:10:59;19.27;;;15.63;;
8341;SDS011;4208;49.406;10.788;2022-08-19T11:13:31;18.50;;;16.02;;
8341;SDS011;4208;49.406;10.788;2022-08-19T11:16:03;18.65;;;16.02;;
8341;SDS011;4208;49.406;10.788;2022-08-19T11:18:36;24.25;;;20.10;;
8341;SDS011;4208;49.406;10.788;2022-08-19T11:21:08;19.17;;;15.73;;
8341;SDS011;4208;49.406;10.788;2022-08-19T11:23:40;19.63;;;15.63;;
8341;SDS011;4208;49.406;10.788;2022-08-19T11:26:09;16.33;;;14.32;;
8341;SDS011;4208;49.406;10.788;2022-08-19T11:28:38;18.48;;;14.73;;
8341;SDS011;4208;49.406;10.788;2022-08-19T11:31:09;16.17;;;13.95;;
8341;SDS011;4208;49.406;10.788;2022-08-19T11:33:39;18.45;;;15.25;;
8341;SDS011;4208;49.406;10.788;2022-08-19T11:36:14;21.02;;;16.15;;
8341;SDS011;4208;49.406;10.788;2022-08-19T11:38:45;18.30;;;15.85;;
8341;SDS011;4208;49.406;10.788;2022-08-19T11:41:15;17.42;;;15.63;;
8341;SDS011;4208;49.406;10.788;2022-08-19T11:43:46;17.50;;;15.68;;
8341;SDS011;4208;49.406;10.788;2022-08-19T11:46:15;19.10;;;15.32;;
8341;SDS011;4208;49.406;10.788;2022-08-19T11:48:45;18.50;;;16.50;;
8341;SDS011;4208;49.406;10.788;2022-08-19T11:51:16;19.85;;;16.67;;
8341;SDS011;4208;49.406;10.788;2022-08-19T11:53:48;21.90;;;17.25;;
8341;SDS011;4208;49.406;10.788;2022-08-19T11:56:17;21.90;;;18.02;;
8341;SDS011;4208;49.406;10.788;2022-08-19T11:58:47;20.10;;;16.98;;
8341;SDS011;4208;49.406;10.788;2022-08-19T12:01:16;20.80;;;17.95;;
8341;SDS011;4208;49.406;10.788;2022-08-19T12:03:47;23.30;;;19.48;;
8341;SDS011;4208;49.406;10.788;2022-08-19T12:06:19;20.50;;;16.33;;
8341;SDS011;4208;49.406;10.788;2022-08-19T12:08:52;19.38;;;16.98;;
8341;SDS011;4208;49.406;10.788;2022-08-19T12:11:22;18.27;;;16.38;;
8341;SDS011;4208;49.406;10.788;2022-08-19T12:13:51;17.05;;;15.18;;
8341;SDS011;4208;49.406;10.788;2022-08-19T12:16:22;17.88;;;14.18;;
8341;SDS011;4208;49.406;10.788;2022-08-19T12:18:53;15.25;;;13.23;;
8341;SDS011;4208;49.406;10.788;2022-08-19T12:21:24;15.82;;;14.10;;
8341;SDS011;4208;49.406;10.788;2022-08-19T12:23:56;15.50;;;12.82;;
8341;SDS011;4208;49.406;10.788;2022-08-19T12:26:27;16.88;;;13.40;;
8341;SDS011;4208;49.406;10.788;2022-08-19T12:28:58;16.75;;;14.05;;
8341;SDS011;4208;49.406;10.788;2022-08-19T12:31:27;14.65;;;13.15;;
8341;SDS011;4208;49.406;10.788;2022-08-19T12:33:56;15.55;;;13.15;;
8341;SDS011;4208;49.406;10.788;2022-08-19T12:36:25;14.98;;;13.48;;
8341;SDS011;4208;49.406;10.788;2022-08-19T12:38:57;15.50;;;13.13;;
8341;SDS011;4208;49.406;10.788;2022-08-19T12:41:26;15.00;;;13.05;;
8341;SDS011;4208;49.406;10.788;2022-08-19T12:43:55;16.98;;;13.77;;
8341;SDS011;4208;49.406;10.788;2022-08-19T12:46:25;15.32;;;13.77;;
8341;SDS011;4208;49.406;10.788;2022-08-19T12:48:53;14.60;;;13.07;;
8341;SDS011;4208;49.406;10.788;2022-08-19T12:51:23;14.70;;;13.20;;
8341;SDS011;4208;49.406;10.788;2022-08-19T12:53:52;16.17;;;14.35;;
8341;SDS011;4208;49.406;10.788;2022-08-19T12:56:22;16.58;;;14.38;;
8341;SDS011;4208;49.406;10.788;2022-08-19T12:58:51;21.17;;;17.08;;
8341;SDS011;4208;49.406;10.788;2022-08-19T13:01:20;23.85;;;18.55;;
8341;SDS011;4208;49.406;10.788;2022-08-19T13:03:50;20.73;;;17.40;;
8341;SDS011;4208;49.406;10.788;2022-08-19T13:06:20;21.15;;;17.98;;
8341;SDS011;4208;49.406;10.788;2022-08-19T13:08:49;33.35;;;23.90;;
8341;SDS011;4208;49.406;10.788;2022-08-19T13:11:25;37.15;;;26.50;;
8341;SDS011;4208;49.406;10.788;2022-08-19T13:13:54;37.25;;;27.30;;
8341;SDS011;4208;49.406;10.788;2022-08-19T13:16:23;37.55;;;27.90;;
8341;SDS011;4208;49.406;10.788;2022-08-19T13:18:51;34.67;;;27.70;;
8341;SDS011;4208;49.406;10.788;2022-08-19T13:21:21;48.60;;;30.75;;
8341;SDS011;4208;49.406;10.788;2022-08-19T13:23:51;41.50;;;30.42;;
8341;SDS011;4208;49.406;10.788;2022-08-19T13:26:21;45.45;;;32.60;;
8341;SDS011;4208;49.406;10.788;2022-08-19T13:28:51;43.83;;;31.98;;
8341;SDS011;4208;49.406;10.788;2022-08-19T13:31:39;45.80;;;32.90;;
8341;SDS011;4208;49.406;10.788;2022-08-19T13:34:28;50.00;;;34.28;;
8341;SDS011;4208;49.406;10.788;2022-08-19T13:36:59;43.67;;;34.42;;
8341;SDS011;4208;49.406;10.788;2022-08-19T13:39:31;46.53;;;34.95;;
8341;SDS011;4208;49.406;10.788;2022-08-19T13:42:01;46.67;;;32.90;;
8341;SDS011;4208;49.406;10.788;2022-08-19T13:44:33;56.55;;;34.75;;
8341;SDS011;4208;49.406;10.788;2022-08-19T13:47:02;49.97;;;35.10;;
8341;SDS011;4208;49.406;10.788;2022-08-19T13:49:34;43.85;;;33.03;;
8341;SDS011;4208;49.406;10.788;2022-08-19T13:52:04;48.05;;;32.63;;
8341;SDS011;4208;49.406;10.788;2022-08-19T13:54:32;51.85;;;35.17;;
8341;SDS011;4208;49.406;10.788;2022-08-19T13:57:01;54.55;;;35.38;;
8341;SDS011;4208;49.406;10.788;2022-08-19T13:59:31;53.90;;;35.05;;
8341;SDS011;4208;49.406;10.788;2022-08-19T14:02:01;60.72;;;34.60;;
8341;SDS011;4208;49.406;10.788;2022-08-19T14:04:32;52.58;;;35.35;;
8341;SDS011;4208;49.406;10.788;2022-08-19T14:07:00;57.90;;;35.28;;
8341;SDS011;4208;49.406;10.788;2022-08-19T14:09:30;96.70;;;37.30;;
8341;SDS011;4208;49.406;10.788;2022-08-19T14:11:59;174.68;;;41.17;;
8341;SDS011;4208;49.406;10.788;2022-08-19T14:14:27;66.53;;;36.40;;
8341;SDS011;4208;49.406;10.788;2022-08-19T14:16:58;101.30;;;42.40;;
8341;SDS011;4208;49.406;10.788;2022-08-19T14:19:27;113.93;;;44.13;;
8341;SDS011;4208;49.406;10.788;2022-08-19T14:21:56;96.55;;;41.55;;
8341;SDS011;4208;49.406;10.788;2022-08-19T14:24:25;132.63;;;45.05;;
8341;SDS011;4208;49.406;10.788;2022-08-19T14:26:54;115.97;;;44.85;;
8341;SDS011;4208;49.406;10.788;2022-08-19T14:29:23;109.32;;;42.45;;
8341;SDS011;4208;49.406;10.788;2022-08-19T14:31:52;89.35;;;39.05;;
8341;SDS011;4208;49.406;10.788;2022-08-19T14:34:22;65.57;;;36.63;;
8341;SDS011;4208;49.406;10.788;2022-08-19T14:36:51;61.97;;;34.40;;
8341;SDS011;4208;49.406;10.788;2022-08-19T14:39:20;49.22;;;28.00;;
8341;SDS011;4208;49.406;10.788;2022-08-19T14:41:49;38.33;;;26.63;;
8341;SDS011;4208;49.406;10.788;2022-08-19T14:44:18;33.85;;;24.70;;
8341;SDS011;4208;49.406;10.788;2022-08-19T14:46:47;38.83;;;25.67;;
8341;SDS011;4208;49.406;10.788;2022-08-19T14:49:17;38.22;;;25.15;;
8341;SDS011;4208;49.406;10.788;2022-08-19T14:51:47;28.58;;;22.35;;
8341;SDS011;4208;49.406;10.788;2022-08-19T14:54:16;32.60;;;24.27;;
8341;SDS011;4208;49.406;10.788;2022-08-19T14:56:45;40.05;;;25.52;;
8341;SDS011;4208;49.406;10.788;2022-08-19T14:59:13;45.30;;;26.33;;
8341;SDS011;4208;49.406;10.788;2022-08-19T15:01:42;66.05;;;29.90;;
8341;SDS011;4208;49.406;10.788;2022-08-19T15:04:11;61.30;;;28.83;;